sensor_id;sensor_type;location;lat;lon;timestamp;P1;durP1;ratioP1;P2;durP2;ratioP2
14139;SDS011;7150;53.514;9.988;2024-01-10T00:00:36;14.53;;;8.13;;
14139;SDS011;7150;53.514;9.988;2024-01-10T00:03:02;14.57;;;8.30;;
14139;SDS011;7150;53.514;9.988;2024-01-10T00:05:28;14.52;;;8.55;;
14139;SDS011;7150;53.514;9.988;2024-01-10T00:07:53;15.97;;;9.17;;
14139;SDS011;7150;53.514;9.988;2024-01-10T00:10:19;13.97;;;7.57;;
14139;SDS011;7150;53.514;9.988;2024-01-10T00:12:46;14.48;;;8.25;;
14139;SDS011;7150;53.514;9.988;2024-01-10T00:15:12;15.33;;;8.97;;
14139;SDS011;7150;53.514;9.988;2024-01-10T00:17:38;13.40;;;8.60;;
14139;SDS011;7150;53.514;9.988;2024-01-10T00:20:05;13.65;;;8.02;;
14139;SDS011;7150;53.514;9.988;2024-01-10T00:22:31;12.23;;;8.13;;
14139;SDS011;7150;53.514;9.988;2024-01-10T00:24:57;14.77;;;7.97;;
14139;SDS011;7150;53.514;9.988;2024-01-10T00:27:23;12.10;;;7.30;;
14139;SDS011;7150;53.514;9.988;2024-01-10T00:29:48;10.73;;;7.17;;
14139;SDS011;7150;53.514;9.988;2024-01-10T00:32:16;12.60;;;7.55;;
14139;SDS011;7150;53.514;9.988;2024-01-10T00:34:41;11.47;;;6.97;;
14139;SDS011;7150;53.514;9.988;2024-01-10T00:37:07;10.80;;;6.53;;
14139;SDS011;7150;53.514;9.988;2024-01-10T00:39:32;10.73;;;6.30;;
14139;SDS011;7150;53.514;9.988;2024-01-10T00:41:57;11.53;;;7.60;;
14139;SDS011;7150;53.514;9.988;2024-01-10T00:44:23;10.37;;;7.33;;
14139;SDS011;7150;53.514;9.988;2024-01-10T00:46:48;10.70;;;7.07;;
14139;SDS011;7150;53.514;9.988;2024-01-10T00:49:14;11.27;;;6.50;;
14139;SDS011;7150;53.514;9.988;2024-01-10T00:51:40;10.50;;;6.80;;
14139;SDS011;7150;53.514;9.988;2024-01-10T00:54:05;10.17;;;6.53;;
14139;SDS011;7150;53.514;9.988;2024-01-10T00:56:30;12.00;;;7.80;;
14139;SDS011;7150;53.514;9.988;2024-01-10T00:58:56;11.23;;;7.07;;
14139;SDS011;7150;53.514;9.988;2024-01-10T01:01:23;12.20;;;7.32;;
14139;SDS011;7150;53.514;9.988;2024-01-10T01:03:49;12.43;;;7.68;;
14139;SDS011;7150;53.514;9.988;2024-01-10T01:06:15;12.50;;;7.63;;
14139;SDS011;7150;53.514;9.988;2024-01-10T01:08:40;12.30;;;7.97;;
14139;SDS011;7150;53.514;9.988;2024-01-10T01:11:06;10.70;;;7.47;;
14139;SDS011;7150;53.514;9.988;2024-01-10T01:13:31;12.83;;;7.50;;
14139;SDS011;7150;53.514;9.988;2024-01-10T01:15:57;14.17;;;7.60;;
14139;SDS011;7150;53.514;9.988;2024-01-10T01:18:22;12.00;;;7.30;;
14139;SDS011;7150;53.514;9.988;2024-01-10T01:20:48;11.73;;;7.67;;
14139;SDS011;7150;53.514;9.988;2024-01-10T01:23:15;13.27;;;8.02;;
14139;SDS011;7150;53.514;9.988;2024-01-10T01:25:40;11.80;;;7.00;;
14139;SDS011;7150;53.514;9.988;2024-01-10T01:28:06;13.47;;;7.23;;
14139;SDS011;7150;53.514;9.988;2024-01-10T01:30:31;14.33;;;7.67;;
14139;SDS011;7150;53.514;9.988;2024-01-10T01:32:57;13.53;;;8.10;;
14139;SDS011;7150;53.514;9.988;2024-01-10T01:35:22;11.53;;;7.17;;
14139;SDS011;7150;53.514;9.988;2024-01-10T01:37:48;11.90;;;7.13;;
14139;SDS011;7150;53.514;9.988;2024-01-10T01:40:14;15.03;;;8.40;;
14139;SDS011;7150;53.514;9.988;2024-01-10T01:42:40;13.37;;;8.10;;
14139;SDS011;7150;53.514;9.988;2024-01-10T01:45:05;14.53;;;8.10;;
14139;SDS011;7150;53.514;9.988;2024-01-10T01:47:31;14.13;;;8.43;;
14139;SDS011;7150;53.514;9.988;2024-01-10T01:49:57;14.50;;;8.52;;
14139;SDS011;7150;53.514;9.988;2024-01-10T01:52:23;11.97;;;7.90;;
14139;SDS011;7150;53.514;9.988;2024-01-10T01:54:49;13.93;;;8.63;;
14139;SDS011;7150;53.514;9.988;2024-01-10T01:57:15;16.67;;;8.33;;
14139;SDS011;7150;53.514;9.988;2024-01-10T01:59:40;16.33;;;9.53;;
14139;SDS011;7150;53.514;9.988;2024-01-10T02:02:06;15.77;;;9.53;;
14139;SDS011;7150;53.514;9.988;2024-01-10T02:04:32;14.03;;;9.23;;
14139;SDS011;7150;53.514;9.988;2024-01-10T02:06:58;13.95;;;8.98;;
14139;SDS011;7150;53.514;9.988;2024-01-10T02:09:24;15.18;;;9.30;;
14139;SDS011;7150;53.514;9.988;2024-01-10T02:11:50;14.93;;;9.50;;
14139;SDS011;7150;53.514;9.988;2024-01-10T02:14:15;14.67;;;8.97;;
14139;SDS011;7150;53.514;9.988;2024-01-10T02:16:41;13.97;;;9.03;;
14139;SDS011;7150;53.514;9.988;2024-01-10T02:19:19;14.47;;;8.33;;
14139;SDS011;7150;53.514;9.988;2024-01-10T02:21:46;12.23;;;7.88;;
14139;SDS011;7150;53.514;9.988;2024-01-10T02:24:12;14.57;;;8.27;;
14139;SDS011;7150;53.514;9.988;2024-01-10T02:26:38;12.40;;;8.27;;
14139;SDS011;7150;53.514;9.988;2024-01-10T02:29:04;13.05;;;7.65;;
14139;SDS011;7150;53.514;9.988;2024-01-10T02:31:29;13.70;;;8.50;;
14139;SDS011;7150;53.514;9.988;2024-01-10T02:33:55;13.27;;;8.57;;
14139;SDS011;7150;53.514;9.988;2024-01-10T02:36:20;12.27;;;8.07;;
14139;SDS011;7150;53.514;9.988;2024-01-10T02:38:46;12.90;;;8.63;;
14139;SDS011;7150;53.514;9.988;2024-01-10T02:41:12;15.23;;;9.48;;
14139;SDS011;7150;53.514;9.988;2024-01-10T02:43:38;15.10;;;9.07;;
14139;SDS011;7150;53.514;9.988;2024-01-10T02:46:04;14.43;;;9.10;;
14139;SDS011;7150;53.514;9.988;2024-01-10T02:48:29;17.90;;;9.80;;
14139;SDS011;7150;53.514;9.988;2024-01-10T02:50:55;14.87;;;9.20;;
14139;SDS011;7150;53.514;9.988;2024-01-10T02:53:20;15.87;;;9.60;;
14139;SDS011;7150;53.514;9.988;2024-01-10T02:55:46;18.30;;;9.80;;
14139;SDS011;7150;53.514;9.988;2024-01-10T02:58:13;17.63;;;9.90;;
14139;SDS011;7150;53.514;9.988;2024-01-10T03:00:39;14.63;;;9.40;;
14139;SDS011;7150;53.514;9.988;2024-01-10T03:03:04;16.70;;;9.07;;
14139;SDS011;7150;53.514;9.988;2024-01-10T03:05:30;18.87;;;9.63;;
14139;SDS011;7150;53.514;9.988;2024-01-10T03:07:55;17.10;;;10.53;;
14139;SDS011;7150;53.514;9.988;2024-01-10T03:10:21;17.93;;;10.93;;
14139;SDS011;7150;53.514;9.988;2024-01-10T03:12:46;16.03;;;9.00;;
14139;SDS011;7150;53.514;9.988;2024-01-10T03:15:12;15.60;;;8.83;;
14139;SDS011;7150;53.514;9.988;2024-01-10T03:17:37;16.83;;;9.83;;
14139;SDS011;7150;53.514;9.988;2024-01-10T03:20:03;18.53;;;10.40;;
14139;SDS011;7150;53.514;9.988;2024-01-10T03:22:30;17.92;;;9.90;;
14139;SDS011;7150;53.514;9.988;2024-01-10T03:24:57;15.93;;;9.27;;
14139;SDS011;7150;53.514;9.988;2024-01-10T03:27:22;16.67;;;9.37;;
14139;SDS011;7150;53.514;9.988;2024-01-10T03:29:48;18.33;;;9.83;;
14139;SDS011;7150;53.514;9.988;2024-01-10T03:32:13;25.13;;;12.03;;
14139;SDS011;7150;53.514;9.988;2024-01-10T03:34:40;24.23;;;11.43;;
14139;SDS011;7150;53.514;9.988;2024-01-10T03:37:06;21.25;;;11.68;;
14139;SDS011;7150;53.514;9.988;2024-01-10T03:39:32;21.63;;;10.93;;
14139;SDS011;7150;53.514;9.988;2024-01-10T03:41:57;20.37;;;10.67;;
14139;SDS011;7150;53.514;9.988;2024-01-10T03:44:23;19.73;;;10.03;;
14139;SDS011;7150;53.514;9.988;2024-01-10T03:46:48;28.10;;;13.43;;
14139;SDS011;7150;53.514;9.988;2024-01-10T03:49:14;29.87;;;13.77;;
14139;SDS011;7150;53.514;9.988;2024-01-10T03:51:39;27.53;;;12.70;;
14139;SDS011;7150;53.514;9.988;2024-01-10T03:54:05;31.13;;;14.47;;
14139;SDS011;7150;53.514;9.988;2024-01-10T03:56:31;25.70;;;12.37;;
14139;SDS011;7150;53.514;9.988;2024-01-10T03:58:56;25.37;;;10.80;;
14139;SDS011;7150;53.514;9.988;2024-01-10T04:01:22;20.23;;;10.57;;
14139;SDS011;7150;53.514;9.988;2024-01-10T04:03:51;22.08;;;11.18;;
14139;SDS011;7150;53.514;9.988;2024-01-10T04:06:16;16.27;;;9.13;;
14139;SDS011;7150;53.514;9.988;2024-01-10T04:08:41;18.90;;;9.63;;
14139;SDS011;7150;53.514;9.988;2024-01-10T04:11:07;14.10;;;7.93;;
14139;SDS011;7150;53.514;9.988;2024-01-10T04:13:34;16.08;;;7.88;;
14139;SDS011;7150;53.514;9.988;2024-01-10T04:15:59;15.10;;;8.20;;
14139;SDS011;7150;53.514;9.988;2024-01-10T04:18:25;15.57;;;8.37;;
14139;SDS011;7150;53.514;9.988;2024-01-10T04:20:50;16.40;;;8.13;;
14139;SDS011;7150;53.514;9.988;2024-01-10T04:23:16;14.93;;;8.37;;
14139;SDS011;7150;53.514;9.988;2024-01-10T04:25:42;13.40;;;6.83;;
14139;SDS011;7150;53.514;9.988;2024-01-10T04:28:07;12.00;;;7.20;;
14139;SDS011;7150;53.514;9.988;2024-01-10T04:30:33;15.17;;;7.57;;
14139;SDS011;7150;53.514;9.988;2024-01-10T04:32:58;15.67;;;8.03;;
14139;SDS011;7150;53.514;9.988;2024-01-10T04:35:24;14.65;;;7.85;;
14139;SDS011;7150;53.514;9.988;2024-01-10T04:37:50;14.83;;;7.87;;
14139;SDS011;7150;53.514;9.988;2024-01-10T04:40:15;12.70;;;8.23;;
14139;SDS011;7150;53.514;9.988;2024-01-10T04:42:41;16.80;;;8.17;;
14139;SDS011;7150;53.514;9.988;2024-01-10T04:45:06;17.63;;;9.90;;
14139;SDS011;7150;53.514;9.988;2024-01-10T04:47:32;16.80;;;8.63;;
14139;SDS011;7150;53.514;9.988;2024-01-10T04:49:58;15.50;;;9.07;;
14139;SDS011;7150;53.514;9.988;2024-01-10T04:52:23;14.83;;;8.47;;
14139;SDS011;7150;53.514;9.988;2024-01-10T04:54:49;15.50;;;8.80;;
14139;SDS011;7150;53.514;9.988;2024-01-10T04:57:14;13.43;;;8.03;;
14139;SDS011;7150;53.514;9.988;2024-01-10T04:59:40;16.77;;;8.32;;
14139;SDS011;7150;53.514;9.988;2024-01-10T05:02:06;17.27;;;9.63;;
14139;SDS011;7150;53.514;9.988;2024-01-10T05:04:32;14.93;;;8.43;;
14139;SDS011;7150;53.514;9.988;2024-01-10T05:06:57;16.97;;;9.13;;
14139;SDS011;7150;53.514;9.988;2024-01-10T05:09:23;14.73;;;7.77;;
14139;SDS011;7150;53.514;9.988;2024-01-10T05:11:48;15.70;;;8.20;;
14139;SDS011;7150;53.514;9.988;2024-01-10T05:14:16;17.23;;;9.07;;
14139;SDS011;7150;53.514;9.988;2024-01-10T05:16:44;17.15;;;9.25;;
14139;SDS011;7150;53.514;9.988;2024-01-10T05:19:10;15.63;;;8.07;;
14139;SDS011;7150;53.514;9.988;2024-01-10T05:21:35;15.23;;;9.27;;
14139;SDS011;7150;53.514;9.988;2024-01-10T05:24:01;16.33;;;8.87;;
14139;SDS011;7150;53.514;9.988;2024-01-10T05:26:26;15.70;;;8.83;;
14139;SDS011;7150;53.514;9.988;2024-01-10T05:28:52;16.30;;;9.03;;
14139;SDS011;7150;53.514;9.988;2024-01-10T05:31:17;16.30;;;8.37;;
14139;SDS011;7150;53.514;9.988;2024-01-10T05:33:43;15.93;;;8.77;;
14139;SDS011;7150;53.514;9.988;2024-01-10T05:36:09;16.80;;;9.33;;
14139;SDS011;7150;53.514;9.988;2024-01-10T05:38:37;15.48;;;8.65;;
14139;SDS011;7150;53.514;9.988;2024-01-10T05:41:03;15.37;;;8.53;;
14139;SDS011;7150;53.514;9.988;2024-01-10T05:43:29;14.00;;;8.30;;
14139;SDS011;7150;53.514;9.988;2024-01-10T05:45:54;16.13;;;8.37;;
14139;SDS011;7150;53.514;9.988;2024-01-10T05:48:20;14.27;;;7.83;;
14139;SDS011;7150;53.514;9.988;2024-01-10T05:50:45;14.30;;;8.17;;
14139;SDS011;7150;53.514;9.988;2024-01-10T05:53:11;12.77;;;7.23;;
14139;SDS011;7150;53.514;9.988;2024-01-10T05:55:38;15.45;;;7.97;;
14139;SDS011;7150;53.514;9.988;2024-01-10T05:58:04;13.20;;;7.70;;
14139;SDS011;7150;53.514;9.988;2024-01-10T06:00:29;13.93;;;7.70;;
14139;SDS011;7150;53.514;9.988;2024-01-10T06:02:55;12.90;;;7.23;;
14139;SDS011;7150;53.514;9.988;2024-01-10T06:05:20;13.53;;;7.37;;
14139;SDS011;7150;53.514;9.988;2024-01-10T06:07:46;11.93;;;7.35;;
14139;SDS011;7150;53.514;9.988;2024-01-10T06:10:12;13.70;;;7.40;;
14139;SDS011;7150;53.514;9.988;2024-01-10T06:12:37;13.30;;;7.20;;
14139;SDS011;7150;53.514;9.988;2024-01-10T06:15:03;13.37;;;7.30;;
14139;SDS011;7150;53.514;9.988;2024-01-10T06:17:29;13.25;;;7.60;;
14139;SDS011;7150;53.514;9.988;2024-01-10T06:19:56;13.30;;;7.10;;
14139;SDS011;7150;53.514;9.988;2024-01-10T06:22:24;12.73;;;7.47;;
14139;SDS011;7150;53.514;9.988;2024-01-10T06:24:50;13.02;;;7.57;;
14139;SDS011;7150;53.514;9.988;2024-01-10T06:27:16;14.33;;;7.37;;
14139;SDS011;7150;53.514;9.988;2024-01-10T06:29:43;14.55;;;7.72;;
14139;SDS011;7150;53.514;9.988;2024-01-10T06:32:09;14.47;;;7.77;;
14139;SDS011;7150;53.514;9.988;2024-01-10T06:34:35;14.00;;;7.93;;
14139;SDS011;7150;53.514;9.988;2024-01-10T06:37:01;13.97;;;7.63;;
14139;SDS011;7150;53.514;9.988;2024-01-10T06:39:26;12.47;;;6.77;;
14139;SDS011;7150;53.514;9.988;2024-01-10T06:41:52;11.60;;;6.57;;
14139;SDS011;7150;53.514;9.988;2024-01-10T06:44:18;9.67;;;5.93;;
14139;SDS011;7150;53.514;9.988;2024-01-10T06:46:43;11.47;;;6.17;;
14139;SDS011;7150;53.514;9.988;2024-01-10T06:49:09;13.67;;;6.80;;
14139;SDS011;7150;53.514;9.988;2024-01-10T06:51:35;12.85;;;6.88;;
14139;SDS011;7150;53.514;9.988;2024-01-10T06:54:01;10.10;;;6.33;;
14139;SDS011;7150;53.514;9.988;2024-01-10T06:56:29;11.88;;;6.78;;
14139;SDS011;7150;53.514;9.988;2024-01-10T06:58:56;12.40;;;6.63;;
14139;SDS011;7150;53.514;9.988;2024-01-10T07:01:21;8.57;;;5.72;;
14139;SDS011;7150;53.514;9.988;2024-01-10T07:03:47;11.60;;;7.13;;
14139;SDS011;7150;53.514;9.988;2024-01-10T07:06:13;11.90;;;6.43;;
14139;SDS011;7150;53.514;9.988;2024-01-10T07:08:42;11.15;;;6.03;;
14139;SDS011;7150;53.514;9.988;2024-01-10T07:11:09;10.13;;;6.55;;
14139;SDS011;7150;53.514;9.988;2024-01-10T07:13:36;10.85;;;5.93;;
14139;SDS011;7150;53.514;9.988;2024-01-10T07:16:02;11.80;;;5.90;;
14139;SDS011;7150;53.514;9.988;2024-01-10T07:18:28;12.10;;;7.10;;
14139;SDS011;7150;53.514;9.988;2024-01-10T07:20:53;10.73;;;6.17;;
14139;SDS011;7150;53.514;9.988;2024-01-10T07:23:19;10.53;;;6.60;;
14139;SDS011;7150;53.514;9.988;2024-01-10T07:25:45;11.17;;;6.50;;
14139;SDS011;7150;53.514;9.988;2024-01-10T07:28:10;12.27;;;6.83;;
14139;SDS011;7150;53.514;9.988;2024-01-10T07:30:36;11.00;;;6.23;;
14139;SDS011;7150;53.514;9.988;2024-01-10T07:33:01;11.43;;;6.90;;
14139;SDS011;7150;53.514;9.988;2024-01-10T07:35:27;13.90;;;7.20;;
14139;SDS011;7150;53.514;9.988;2024-01-10T07:37:54;17.48;;;8.38;;
14139;SDS011;7150;53.514;9.988;2024-01-10T07:40:19;15.27;;;7.90;;
14139;SDS011;7150;53.514;9.988;2024-01-10T07:42:45;14.10;;;7.77;;
14139;SDS011;7150;53.514;9.988;2024-01-10T07:45:10;12.13;;;7.57;;
14139;SDS011;7150;53.514;9.988;2024-01-10T07:47:36;14.73;;;7.93;;
14139;SDS011;7150;53.514;9.988;2024-01-10T07:50:09;12.68;;;7.43;;
14139;SDS011;7150;53.514;9.988;2024-01-10T07:52:35;10.60;;;6.57;;
14139;SDS011;7150;53.514;9.988;2024-01-10T07:55:01;11.50;;;7.17;;
14139;SDS011;7150;53.514;9.988;2024-01-10T07:57:30;13.48;;;7.78;;
14139;SDS011;7150;53.514;9.988;2024-01-10T07:59:55;11.57;;;7.40;;
14139;SDS011;7150;53.514;9.988;2024-01-10T08:02:21;13.33;;;8.00;;
14139;SDS011;7150;53.514;9.988;2024-01-10T08:04:47;12.57;;;7.60;;
14139;SDS011;7150;53.514;9.988;2024-01-10T08:07:12;13.90;;;7.63;;
14139;SDS011;7150;53.514;9.988;2024-01-10T08:09:38;12.53;;;7.73;;
14139;SDS011;7150;53.514;9.988;2024-01-10T08:12:04;12.77;;;7.37;;
14139;SDS011;7150;53.514;9.988;2024-01-10T08:14:29;13.50;;;8.30;;
14139;SDS011;7150;53.514;9.988;2024-01-10T08:16:55;14.37;;;8.37;;
14139;SDS011;7150;53.514;9.988;2024-01-10T08:19:23;14.05;;;7.57;;
14139;SDS011;7150;53.514;9.988;2024-01-10T08:21:50;13.57;;;7.32;;
14139;SDS011;7150;53.514;9.988;2024-01-10T08:24:16;11.57;;;7.40;;
14139;SDS011;7150;53.514;9.988;2024-01-10T08:26:42;12.90;;;7.13;;
14139;SDS011;7150;53.514;9.988;2024-01-10T08:29:08;10.70;;;6.90;;
14139;SDS011;7150;53.514;9.988;2024-01-10T08:31:33;11.27;;;7.20;;
14139;SDS011;7150;53.514;9.988;2024-01-10T08:34:00;13.37;;;7.80;;
14139;SDS011;7150;53.514;9.988;2024-01-10T08:36:26;13.13;;;7.60;;
14139;SDS011;7150;53.514;9.988;2024-01-10T08:38:52;13.10;;;7.80;;
14139;SDS011;7150;53.514;9.988;2024-01-10T08:41:17;11.30;;;7.40;;
14139;SDS011;7150;53.514;9.988;2024-01-10T08:43:44;11.95;;;7.47;;
14139;SDS011;7150;53.514;9.988;2024-01-10T08:46:11;15.50;;;8.50;;
14139;SDS011;7150;53.514;9.988;2024-01-10T08:48:36;15.27;;;8.73;;
14139;SDS011;7150;53.514;9.988;2024-01-10T08:51:02;13.80;;;8.27;;
14139;SDS011;7150;53.514;9.988;2024-01-10T08:53:28;13.37;;;7.63;;
14139;SDS011;7150;53.514;9.988;2024-01-10T08:55:53;14.73;;;7.47;;
14139;SDS011;7150;53.514;9.988;2024-01-10T08:58:19;11.93;;;7.53;;
14139;SDS011;7150;53.514;9.988;2024-01-10T09:00:45;11.90;;;7.03;;
14139;SDS011;7150;53.514;9.988;2024-01-10T09:03:10;14.33;;;7.87;;
14139;SDS011;7150;53.514;9.988;2024-01-10T09:05:37;13.75;;;8.43;;
14139;SDS011;7150;53.514;9.988;2024-01-10T09:08:03;14.00;;;8.03;;
14139;SDS011;7150;53.514;9.988;2024-01-10T09:10:28;14.60;;;8.37;;
14139;SDS011;7150;53.514;9.988;2024-01-10T09:12:54;17.53;;;9.17;;
14139;SDS011;7150;53.514;9.988;2024-01-10T09:15:19;14.33;;;8.17;;
14139;SDS011;7150;53.514;9.988;2024-01-10T09:17:45;15.60;;;8.67;;
14139;SDS011;7150;53.514;9.988;2024-01-10T09:20:12;12.50;;;7.87;;
14139;SDS011;7150;53.514;9.988;2024-01-10T09:22:38;12.67;;;7.33;;
14139;SDS011;7150;53.514;9.988;2024-01-10T09:25:04;14.13;;;7.10;;
14139;SDS011;7150;53.514;9.988;2024-01-10T09:27:31;11.15;;;6.85;;
14139;SDS011;7150;53.514;9.988;2024-01-10T09:29:58;12.55;;;7.45;;
14139;SDS011;7150;53.514;9.988;2024-01-10T09:32:24;12.53;;;6.90;;
14139;SDS011;7150;53.514;9.988;2024-01-10T09:34:50;14.10;;;7.57;;
14139;SDS011;7150;53.514;9.988;2024-01-10T09:37:16;14.83;;;7.57;;
14139;SDS011;7150;53.514;9.988;2024-01-10T09:39:41;14.47;;;7.77;;
14139;SDS011;7150;53.514;9.988;2024-01-10T09:42:07;12.90;;;7.10;;
14139;SDS011;7150;53.514;9.988;2024-01-10T09:44:33;14.80;;;8.23;;
14139;SDS011;7150;53.514;9.988;2024-01-10T09:46:58;15.57;;;8.50;;
14139;SDS011;7150;53.514;9.988;2024-01-10T09:49:25;14.40;;;7.37;;
14139;SDS011;7150;53.514;9.988;2024-01-10T09:51:53;13.73;;;6.87;;
14139;SDS011;7150;53.514;9.988;2024-01-10T09:54:25;12.85;;;6.93;;
14139;SDS011;7150;53.514;9.988;2024-01-10T09:56:51;12.43;;;7.10;;
14139;SDS011;7150;53.514;9.988;2024-01-10T09:59:18;11.32;;;6.78;;
14139;SDS011;7150;53.514;9.988;2024-01-10T10:01:43;9.20;;;6.17;;
14139;SDS011;7150;53.514;9.988;2024-01-10T10:04:09;12.37;;;6.03;;
14139;SDS011;7150;53.514;9.988;2024-01-10T10:06:36;10.50;;;5.73;;
14139;SDS011;7150;53.514;9.988;2024-01-10T10:09:02;8.30;;;5.13;;
14139;SDS011;7150;53.514;9.988;2024-01-10T10:11:27;9.93;;;6.20;;
14139;SDS011;7150;53.514;9.988;2024-01-10T10:13:53;11.30;;;5.90;;
14139;SDS011;7150;53.514;9.988;2024-01-10T10:16:25;8.87;;;5.70;;
14139;SDS011;7150;53.514;9.988;2024-01-10T10:18:53;9.23;;;5.67;;
14139;SDS011;7150;53.514;9.988;2024-01-10T10:21:23;10.95;;;6.10;;
14139;SDS011;7150;53.514;9.988;2024-01-10T10:23:57;8.23;;;5.05;;
14139;SDS011;7150;53.514;9.988;2024-01-10T10:26:24;9.27;;;5.50;;
14139;SDS011;7150;53.514;9.988;2024-01-10T10:28:52;11.98;;;6.22;;
14139;SDS011;7150;53.514;9.988;2024-01-10T10:31:18;11.07;;;6.83;;
14139;SDS011;7150;53.514;9.988;2024-01-10T10:33:44;9.70;;;6.03;;
14139;SDS011;7150;53.514;9.988;2024-01-10T10:36:10;10.83;;;6.37;;
14139;SDS011;7150;53.514;9.988;2024-01-10T10:38:38;12.48;;;6.82;;
14139;SDS011;7150;53.514;9.988;2024-01-10T10:41:07;10.47;;;5.50;;
14139;SDS011;7150;53.514;9.988;2024-01-10T10:43:36;9.17;;;5.73;;
14139;SDS011;7150;53.514;9.988;2024-01-10T10:46:03;9.17;;;5.20;;
14139;SDS011;7150;53.514;9.988;2024-01-10T10:48:34;10.10;;;5.10;;
14139;SDS011;7150;53.514;9.988;2024-01-10T10:51:11;9.23;;;5.50;;
14139;SDS011;7150;53.514;9.988;2024-01-10T10:53:40;11.73;;;5.50;;
14139;SDS011;7150;53.514;9.988;2024-01-10T10:56:10;9.98;;;5.78;;
14139;SDS011;7150;53.514;9.988;2024-01-10T10:58:40;7.83;;;5.40;;
14139;SDS011;7150;53.514;9.988;2024-01-10T11:01:08;9.30;;;5.90;;
14139;SDS011;7150;53.514;9.988;2024-01-10T11:03:35;9.57;;;6.07;;
14139;SDS011;7150;53.514;9.988;2024-01-10T11:06:02;9.53;;;6.03;;
14139;SDS011;7150;53.514;9.988;2024-01-10T11:08:30;10.90;;;5.80;;
14139;SDS011;7150;53.514;9.988;2024-01-10T11:11:01;13.70;;;7.03;;
14139;SDS011;7150;53.514;9.988;2024-01-10T11:13:42;13.32;;;7.18;;
14139;SDS011;7150;53.514;9.988;2024-01-10T11:22:39;9.68;;;6.35;;
14139;SDS011;7150;53.514;9.988;2024-01-10T11:25:10;10.43;;;6.50;;
14139;SDS011;7150;53.514;9.988;2024-01-10T11:27:36;12.37;;;6.47;;
14139;SDS011;7150;53.514;9.988;2024-01-10T11:30:02;13.83;;;6.90;;
14139;SDS011;7150;53.514;9.988;2024-01-10T11:32:30;14.23;;;7.75;;
14139;SDS011;7150;53.514;9.988;2024-01-10T11:34:57;14.90;;;7.13;;
14139;SDS011;7150;53.514;9.988;2024-01-10T11:37:27;11.77;;;7.40;;
14139;SDS011;7150;53.514;9.988;2024-01-10T11:40:02;15.57;;;7.65;;
14139;SDS011;7150;53.514;9.988;2024-01-10T11:42:41;14.53;;;8.23;;
14139;SDS011;7150;53.514;9.988;2024-01-10T11:45:07;11.57;;;7.18;;
14139;SDS011;7150;53.514;9.988;2024-01-10T11:47:33;11.83;;;7.23;;
14139;SDS011;7150;53.514;9.988;2024-01-10T11:49:59;11.17;;;7.00;;
14139;SDS011;7150;53.514;9.988;2024-01-10T11:52:34;13.23;;;7.38;;
14139;SDS011;7150;53.514;9.988;2024-01-10T11:55:01;10.82;;;7.05;;
14139;SDS011;7150;53.514;9.988;2024-01-10T11:57:28;12.30;;;7.55;;
14139;SDS011;7150;53.514;9.988;2024-01-10T11:59:57;11.53;;;6.60;;
14139;SDS011;7150;53.514;9.988;2024-01-10T12:02:25;12.25;;;6.93;;
14139;SDS011;7150;53.514;9.988;2024-01-10T12:04:52;12.88;;;7.28;;
14139;SDS011;7150;53.514;9.988;2024-01-10T12:07:18;11.18;;;7.00;;
14139;SDS011;7150;53.514;9.988;2024-01-10T12:09:45;14.07;;;7.40;;
14139;SDS011;7150;53.514;9.988;2024-01-10T12:12:12;13.40;;;7.53;;
14139;SDS011;7150;53.514;9.988;2024-01-10T12:14:39;12.90;;;7.95;;
14139;SDS011;7150;53.514;9.988;2024-01-10T12:17:05;11.88;;;7.25;;
14139;SDS011;7150;53.514;9.988;2024-01-10T12:19:34;12.25;;;6.70;;
14139;SDS011;7150;53.514;9.988;2024-01-10T12:22:03;12.52;;;7.05;;
14139;SDS011;7150;53.514;9.988;2024-01-10T12:24:30;9.43;;;6.17;;
14139;SDS011;7150;53.514;9.988;2024-01-10T12:26:56;13.20;;;7.07;;
14139;SDS011;7150;53.514;9.988;2024-01-10T12:29:22;14.07;;;7.63;;
14139;SDS011;7150;53.514;9.988;2024-01-10T12:31:48;12.83;;;7.90;;
14139;SDS011;7150;53.514;9.988;2024-01-10T12:34:13;14.07;;;8.10;;
14139;SDS011;7150;53.514;9.988;2024-01-10T12:36:40;12.30;;;7.13;;
14139;SDS011;7150;53.514;9.988;2024-01-10T12:39:06;12.93;;;7.27;;
14139;SDS011;7150;53.514;9.988;2024-01-10T12:41:32;13.30;;;7.97;;
14139;SDS011;7150;53.514;9.988;2024-01-10T12:43:59;15.60;;;8.40;;
14139;SDS011;7150;53.514;9.988;2024-01-10T12:46:28;14.37;;;8.53;;
14139;SDS011;7150;53.514;9.988;2024-01-10T12:48:57;16.87;;;8.33;;
14139;SDS011;7150;53.514;9.988;2024-01-10T12:51:25;14.73;;;7.80;;
14139;SDS011;7150;53.514;9.988;2024-01-10T12:53:51;14.57;;;8.43;;
14139;SDS011;7150;53.514;9.988;2024-01-10T12:56:18;15.43;;;8.30;;
14139;SDS011;7150;53.514;9.988;2024-01-10T12:58:43;13.83;;;8.77;;
14139;SDS011;7150;53.514;9.988;2024-01-10T13:01:09;14.10;;;8.50;;
14139;SDS011;7150;53.514;9.988;2024-01-10T13:03:34;13.00;;;7.43;;
14139;SDS011;7150;53.514;9.988;2024-01-10T13:06:00;14.37;;;8.07;;
14139;SDS011;7150;53.514;9.988;2024-01-10T13:08:26;15.67;;;8.30;;
14139;SDS011;7150;53.514;9.988;2024-01-10T13:10:51;13.10;;;7.60;;
14139;SDS011;7150;53.514;9.988;2024-01-10T13:13:18;13.87;;;7.80;;
14139;SDS011;7150;53.514;9.988;2024-01-10T13:15:46;14.30;;;8.20;;
14139;SDS011;7150;53.514;9.988;2024-01-10T13:18:12;13.87;;;7.67;;
14139;SDS011;7150;53.514;9.988;2024-01-10T13:20:39;14.87;;;8.40;;
14139;SDS011;7150;53.514;9.988;2024-01-10T13:23:05;14.40;;;8.67;;
14139;SDS011;7150;53.514;9.988;2024-01-10T13:25:30;10.53;;;7.17;;
14139;SDS011;7150;53.514;9.988;2024-01-10T13:27:56;11.63;;;7.03;;
14139;SDS011;7150;53.514;9.988;2024-01-10T13:30:22;10.10;;;5.60;;
14139;SDS011;7150;53.514;9.988;2024-01-10T13:32:48;8.90;;;5.53;;
14139;SDS011;7150;53.514;9.988;2024-01-10T13:35:14;11.60;;;5.80;;
14139;SDS011;7150;53.514;9.988;2024-01-10T13:37:43;10.07;;;6.35;;
14139;SDS011;7150;53.514;9.988;2024-01-10T13:40:09;10.97;;;6.60;;
14139;SDS011;7150;53.514;9.988;2024-01-10T13:42:37;14.30;;;6.57;;
14139;SDS011;7150;53.514;9.988;2024-01-10T13:45:08;12.15;;;6.55;;
14139;SDS011;7150;53.514;9.988;2024-01-10T13:47:37;10.40;;;6.17;;
14139;SDS011;7150;53.514;9.988;2024-01-10T13:50:06;11.07;;;5.97;;
14139;SDS011;7150;53.514;9.988;2024-01-10T13:52:33;8.57;;;5.03;;
14139;SDS011;7150;53.514;9.988;2024-01-10T13:54:59;11.57;;;5.53;;
14139;SDS011;7150;53.514;9.988;2024-01-10T13:57:25;7.13;;;4.65;;
14139;SDS011;7150;53.514;9.988;2024-01-10T13:59:51;7.83;;;4.37;;
14139;SDS011;7150;53.514;9.988;2024-01-10T14:02:16;8.80;;;4.50;;
14139;SDS011;7150;53.514;9.988;2024-01-10T14:04:45;9.20;;;5.20;;
14139;SDS011;7150;53.514;9.988;2024-01-10T14:07:10;8.70;;;5.43;;
14139;SDS011;7150;53.514;9.988;2024-01-10T14:09:36;8.03;;;4.77;;
14139;SDS011;7150;53.514;9.988;2024-01-10T14:12:01;8.13;;;5.00;;
14139;SDS011;7150;53.514;9.988;2024-01-10T14:14:27;8.30;;;5.03;;
14139;SDS011;7150;53.514;9.988;2024-01-10T14:16:52;8.67;;;5.20;;
14139;SDS011;7150;53.514;9.988;2024-01-10T14:19:18;8.40;;;4.67;;
14139;SDS011;7150;53.514;9.988;2024-01-10T14:21:44;8.57;;;5.20;;
14139;SDS011;7150;53.514;9.988;2024-01-10T14:24:10;8.97;;;4.90;;
14139;SDS011;7150;53.514;9.988;2024-01-10T14:26:36;10.80;;;5.77;;
14139;SDS011;7150;53.514;9.988;2024-01-10T14:29:02;7.80;;;4.90;;
14139;SDS011;7150;53.514;9.988;2024-01-10T14:31:28;8.23;;;5.10;;
14139;SDS011;7150;53.514;9.988;2024-01-10T14:33:53;8.50;;;5.33;;
14139;SDS011;7150;53.514;9.988;2024-01-10T14:36:19;8.40;;;5.27;;
14139;SDS011;7150;53.514;9.988;2024-01-10T14:38:44;8.20;;;5.17;;
14139;SDS011;7150;53.514;9.988;2024-01-10T14:41:10;10.30;;;4.83;;
14139;SDS011;7150;53.514;9.988;2024-01-10T14:43:36;10.83;;;5.87;;
14139;SDS011;7150;53.514;9.988;2024-01-10T14:46:02;9.40;;;5.43;;
14139;SDS011;7150;53.514;9.988;2024-01-10T14:48:28;9.23;;;5.72;;